Lakeland, Louisiana
Current Conditions -  °F | °C
As of 10:35 PM on Friday 24 Oct 2014 (Local Time) from KHZR Reporting Station
Clear Clear  
Wind Chill: 54°   Ceiling: Unl
Heat Index: 54°   Visibility: 10mi
Dew Point: 51°   Wind: 0mph
Humidity: 89%   Direction: NA
Pressure: 30.13"   Gusts: NA
Location:  30.6°N, 91.4°W
Report Text: KHZR 250335Z AUTO 00000KT 10SM CLR 12/11 A3013 RMK AO2 T01220105
Loading
Personal Weather Stations






























Interactive Weather Map
Tropical Storm Tracking
New forecast layout! Learn more

10-Day Weather Forecast

Advertisements
Track Severe Weather on mobile